createdAt,value
2023-05-02T00:00:10.420Z,54.9043
2023-05-02T00:01:11.821Z,54.9046
2023-05-02T00:02:13.231Z,54.9153
2023-05-02T00:03:14.666Z,54.9424
2023-05-02T00:04:16.137Z,55.0408
2023-05-02T00:05:17.457Z,55.0132
2023-05-02T00:06:18.948Z,55.0049
2023-05-02T00:07:20.349Z,55.0154
2023-05-02T00:08:21.718Z,55.0245
2023-05-02T00:09:23.290Z,54.9670
2023-05-02T00:10:24.643Z,54.9809
2023-05-02T00:11:26.143Z,54.9904
2023-05-02T00:12:27.402Z,55.0194
2023-05-02T00:13:28.913Z,54.9793
2023-05-02T00:14:30.309Z,55.0005
2023-05-02T00:15:31.780Z,55.0574
2023-05-02T00:16:33.302Z,55.0241
2023-05-02T00:17:34.690Z,54.9713
2023-05-02T00:18:36.025Z,55.0203
2023-05-02T00:19:37.447Z,54.9960
2023-05-02T00:20:38.966Z,54.9832
2023-05-02T00:21:40.326Z,54.9965
2023-05-02T00:22:41.672Z,55.0172
2023-05-02T00:23:43.118Z,55.0046
2023-05-02T00:24:44.518Z,54.9427
2023-05-02T00:25:46.007Z,54.9690
2023-05-02T00:26:47.463Z,54.9690
2023-05-02T00:27:48.797Z,55.0136
2023-05-02T00:28:50.145Z,55.0057
2023-05-02T00:29:51.671Z,55.0164
2023-05-02T00:30:53.090Z,55.0311
2023-05-02T00:31:54.569Z,55.0393
2023-05-02T00:32:55.973Z,54.9892
2023-05-02T00:33:57.390Z,54.9665
2023-05-02T00:34:58.766Z,54.9970
2023-05-02T00:36:00.210Z,54.9818
2023-05-02T00:37:01.600Z,54.9144
2023-05-02T00:38:03.102Z,54.9184
2023-05-02T00:39:04.409Z,54.9373
2023-05-02T00:40:05.889Z,54.9509
2023-05-02T00:41:07.237Z,55.0201
2023-05-02T00:42:08.694Z,54.9834
2023-05-02T00:43:10.098Z,54.9858
2023-05-02T00:44:11.537Z,55.0225
2023-05-02T00:45:12.920Z,55.0187
2023-05-02T00:46:14.374Z,55.0004
2023-05-02T00:47:15.793Z,54.9827
2023-05-02T00:48:17.205Z,55.0088
2023-05-02T00:49:18.541Z,55.0144
2023-05-02T00:50:20.036Z,55.0273
2023-05-02T00:51:21.418Z,55.0152
2023-05-02T00:52:22.931Z,55.0259
2023-05-02T00:53:24.264Z,55.0015
2023-05-02T00:54:25.726Z,55.0328
2023-05-02T00:55:27.103Z,55.0518
2023-05-02T00:56:28.545Z,55.0522
2023-05-02T00:57:30.006Z,55.0007
2023-05-02T00:58:31.418Z,54.9940
2023-05-02T00:59:32.798Z,54.9825
2023-05-02T01:00:34.246Z,54.9988
2023-05-02T01:01:35.576Z,55.0267
2023-05-02T01:02:37.279Z,55.0434
2023-05-02T01:03:38.590Z,55.0326
2023-05-02T01:04:39.980Z,54.9686
2023-05-02T01:05:41.329Z,54.9915
2023-05-02T01:06:42.898Z,54.9753
2023-05-02T01:07:44.179Z,55.0187
2023-05-02T01:08:45.600Z,55.0389
2023-05-02T01:09:46.991Z,55.0082
2023-05-02T01:10:48.416Z,55.0210
2023-05-02T01:11:49.820Z,54.9911
2023-05-02T01:12:51.307Z,54.9615
2023-05-02T01:13:52.662Z,54.9814
2023-05-02T01:14:54.134Z,55.0018
2023-05-02T01:15:55.506Z,54.9826
2023-05-02T01:16:56.996Z,55.0158
2023-05-02T01:17:58.499Z,55.0132
2023-05-02T01:18:59.818Z,55.0311
2023-05-02T01:20:01.331Z,55.0264
2023-05-02T01:21:02.657Z,55.0167
2023-05-02T01:22:04.066Z,55.0284
2023-05-02T01:23:05.456Z,54.9897
2023-05-02T01:24:06.863Z,54.9654
2023-05-02T01:25:08.178Z,55.0198
2023-05-02T01:26:09.715Z,55.0461
2023-05-02T01:27:11.105Z,55.0287
2023-05-02T01:28:12.595Z,54.9929
2023-05-02T01:29:13.859Z,55.0025
2023-05-02T01:30:15.400Z,54.9740
2023-05-02T01:31:16.826Z,54.9609
2023-05-02T01:32:18.250Z,54.9868
2023-05-02T01:33:19.684Z,55.0086
2023-05-02T01:34:21.091Z,54.9580
2023-05-02T01:35:22.402Z,55.0312
2023-05-02T01:36:23.943Z,55.0429
2023-05-02T01:37:25.328Z,55.0894
2023-05-02T01:38:26.842Z,55.0287
2023-05-02T01:39:28.122Z,55.0519
2023-05-02T01:40:29.585Z,55.0616
2023-05-02T01:41:30.974Z,55.0990
2023-05-02T01:42:32.423Z,55.0646
2023-05-02T01:43:33.834Z,55.0434
2023-05-02T01:44:35.260Z,55.0241
2023-05-02T01:45:36.621Z,54.9774
2023-05-02T01:46:38.176Z,55.0086
2023-05-02T01:47:39.509Z,54.9739
2023-05-02T01:48:40.975Z,55.0746
2023-05-02T01:49:42.342Z,55.1075
2023-05-02T01:50:43.800Z,55.0265
2023-05-02T01:51:45.117Z,54.9849
2023-05-02T01:52:46.641Z,54.9738
2023-05-02T01:53:48.094Z,55.0302
2023-05-02T01:54:49.469Z,54.9778
2023-05-02T01:55:50.844Z,55.0078
2023-05-02T01:56:52.310Z,55.0349
2023-05-02T01:57:53.693Z,55.0605
2023-05-02T01:58:55.190Z,55.0025
2023-05-02T01:59:56.580Z,54.9799
2023-05-02T02:00:58.022Z,54.9673
2023-05-02T02:01:59.362Z,55.0273
2023-05-02T02:03:00.808Z,55.0454
2023-05-02T02:04:02.339Z,55.0446
2023-05-02T02:05:03.699Z,54.9752
2023-05-02T02:06:05.127Z,54.8436
2023-05-02T02:07:06.650Z,54.7336
2023-05-02T02:08:07.948Z,54.7491
2023-05-02T02:09:09.462Z,54.8105
2023-05-02T02:10:10.788Z,54.8247
2023-05-02T02:11:12.235Z,54.8548
2023-05-02T02:12:13.652Z,54.9043
2023-05-02T02:13:15.147Z,54.9380
2023-05-02T02:14:16.499Z,54.9170
2023-05-02T02:15:17.968Z,54.9104
2023-05-02T02:16:19.400Z,54.8721
2023-05-02T02:17:20.762Z,54.8838
2023-05-02T02:18:22.159Z,54.9179
2023-05-02T02:19:23.664Z,54.8746
2023-05-02T02:20:25.068Z,54.9022
2023-05-02T02:21:26.434Z,54.8616
2023-05-02T02:22:27.852Z,54.8064
2023-05-02T02:23:29.341Z,54.8820
2023-05-02T02:24:30.738Z,54.8625
2023-05-02T02:25:32.173Z,54.9009
2023-05-02T02:26:33.530Z,54.9146
2023-05-02T02:27:34.986Z,54.9569
2023-05-02T02:28:36.431Z,54.9809
2023-05-02T02:29:37.875Z,54.9120
2023-05-02T02:30:39.379Z,54.9185
2023-05-02T02:31:40.657Z,54.8915
2023-05-02T02:32:42.146Z,54.9502
2023-05-02T02:33:43.496Z,54.9308
2023-05-02T02:34:45.056Z,54.9119
2023-05-02T02:35:46.389Z,54.9447
2023-05-02T02:36:47.804Z,54.9112
2023-05-02T02:37:49.185Z,54.9044
2023-05-02T02:38:50.652Z,54.9066
2023-05-02T02:39:52.107Z,54.8829
2023-05-02T02:40:53.514Z,54.8795
2023-05-02T02:41:54.902Z,54.9208
2023-05-02T02:42:56.338Z,54.8755
2023-05-02T02:43:57.805Z,54.9150
2023-05-02T02:44:59.174Z,54.8987
2023-05-02T02:46:00.729Z,54.8445
2023-05-02T02:47:02.000Z,54.8787
2023-05-02T02:48:03.492Z,54.9177
2023-05-02T02:49:04.872Z,54.8816
2023-05-02T02:50:06.365Z,54.8933
2023-05-02T02:51:07.772Z,54.8994
2023-05-02T02:52:09.135Z,54.8615
2023-05-02T02:53:10.511Z,54.8613
2023-05-02T02:54:25.411Z,54.8873
2023-05-02T02:55:13.423Z,54.8893
2023-05-02T02:56:14.899Z,54.8973
2023-05-02T02:57:16.224Z,54.8823
2023-05-02T02:58:17.626Z,54.8448
2023-05-02T02:59:19.067Z,54.8177
2023-05-02T03:00:20.604Z,54.8722
2023-05-02T03:01:21.975Z,54.8732
2023-05-02T03:02:23.386Z,54.8962
2023-05-02T03:03:24.872Z,54.8854
2023-05-02T03:04:26.186Z,54.8721
2023-05-02T03:05:27.679Z,54.8816
2023-05-02T03:06:29.187Z,54.8488
2023-05-02T03:07:30.493Z,54.8399
2023-05-02T03:08:31.905Z,54.8303
2023-05-02T03:09:33.316Z,54.7889
2023-05-02T03:10:34.868Z,54.7731
2023-05-02T03:11:36.192Z,54.8158
2023-05-02T03:12:37.653Z,54.8367
2023-05-02T03:13:39.003Z,54.8279
2023-05-02T03:14:40.508Z,54.8518
2023-05-02T03:15:41.919Z,54.8023
2023-05-02T03:16:43.420Z,54.8296
2023-05-02T03:17:44.821Z,54.8208
2023-05-02T03:18:46.229Z,54.8333
2023-05-02T03:19:47.584Z,54.8161
2023-05-02T03:20:48.959Z,54.8042
2023-05-02T03:21:50.504Z,54.8064
2023-05-02T03:22:51.896Z,54.8149
2023-05-02T03:23:53.264Z,54.8206
2023-05-02T03:24:54.687Z,54.8077
2023-05-02T03:25:56.072Z,54.8279
2023-05-02T03:26:57.568Z,54.7812
2023-05-02T03:27:58.953Z,54.8133
2023-05-02T03:29:00.364Z,54.8213
2023-05-02T03:30:02.084Z,54.8103
2023-05-02T03:31:03.260Z,54.8368
2023-05-02T03:32:04.750Z,54.8987
2023-05-02T03:33:06.100Z,54.8712
2023-05-02T03:34:07.513Z,54.8529
2023-05-02T03:35:08.913Z,54.8528
2023-05-02T03:36:10.338Z,54.7810
2023-05-02T03:37:11.759Z,54.7670
2023-05-02T03:38:13.287Z,54.8068
2023-05-02T03:39:14.594Z,54.7553
2023-05-02T03:40:16.052Z,54.7691
2023-05-02T03:41:17.346Z,54.8470
2023-05-02T03:42:18.910Z,54.7969
2023-05-02T03:43:20.332Z,54.8075
2023-05-02T03:44:21.781Z,54.8173
2023-05-02T03:45:23.152Z,54.8584
2023-05-02T03:46:24.617Z,54.8372
2023-05-02T03:47:26.032Z,54.7825
2023-05-02T03:48:27.496Z,54.7423
2023-05-02T03:49:28.805Z,54.8551
2023-05-02T03:50:30.294Z,54.8299
2023-05-02T03:51:31.604Z,54.8048
2023-05-02T03:52:33.125Z,54.7815
2023-05-02T03:53:34.562Z,54.7762
2023-05-02T03:54:36.040Z,54.7875
2023-05-02T03:55:37.405Z,54.8036
2023-05-02T03:56:40.202Z,54.8301
2023-05-02T03:57:40.259Z,54.7947
2023-05-02T03:58:41.721Z,54.7609
2023-05-02T03:59:43.160Z,54.8438
2023-05-02T04:00:44.552Z,54.8032
2023-05-02T04:01:45.969Z,54.8173
2023-05-02T04:02:47.495Z,54.7836
2023-05-02T04:03:48.900Z,54.8422
2023-05-02T04:04:50.287Z,54.7945
2023-05-02T04:05:51.676Z,54.7984
2023-05-02T04:06:53.185Z,54.7310
2023-05-02T04:07:54.469Z,54.7349
2023-05-02T04:08:56.001Z,54.7768
2023-05-02T04:09:57.439Z,54.7287
2023-05-02T04:10:58.748Z,54.7363
2023-05-02T04:12:00.256Z,54.7541
2023-05-02T04:13:01.716Z,54.7506
2023-05-02T04:14:03.164Z,54.7708
2023-05-02T04:15:04.615Z,54.7319
2023-05-02T04:16:05.982Z,54.7100
2023-05-02T04:17:07.543Z,54.6585
2023-05-02T04:18:08.891Z,54.6771
2023-05-02T04:19:10.829Z,54.6510
2023-05-02T04:20:11.696Z,54.6613
2023-05-02T04:21:13.073Z,54.6827
2023-05-02T04:22:14.478Z,54.7299
2023-05-02T04:23:15.922Z,54.7900
2023-05-02T04:24:17.389Z,54.7511
2023-05-02T04:25:18.867Z,54.7102
2023-05-02T04:26:20.108Z,54.5869
2023-05-02T04:27:21.622Z,54.4943
2023-05-02T04:28:23.113Z,54.4619
2023-05-02T04:29:24.506Z,54.4969
2023-05-02T04:30:25.932Z,54.5783
2023-05-02T04:31:27.406Z,54.5979
2023-05-02T04:32:28.802Z,54.6341
2023-05-02T04:33:30.120Z,54.7090
2023-05-02T04:34:31.591Z,54.6985
2023-05-02T04:35:32.987Z,54.6890
2023-05-02T04:36:34.390Z,54.6816
2023-05-02T04:37:35.783Z,54.7254
2023-05-02T04:38:37.224Z,54.6870
2023-05-02T04:39:38.613Z,54.6634
2023-05-02T04:40:40.120Z,54.7388
2023-05-02T04:41:41.486Z,54.7080
2023-05-02T04:42:42.925Z,54.6501
2023-05-02T04:43:44.358Z,54.6950
2023-05-02T04:44:45.814Z,54.6558
2023-05-02T04:45:47.112Z,54.6889
2023-05-02T04:46:48.613Z,54.6624
2023-05-02T04:47:50.028Z,54.6651
2023-05-02T04:48:51.472Z,54.6476
2023-05-02T04:49:52.875Z,54.6393
2023-05-02T04:50:54.403Z,54.6673
2023-05-02T04:51:55.733Z,54.6229
2023-05-02T04:52:57.121Z,54.6397
2023-05-02T04:53:58.523Z,54.6340
2023-05-02T04:55:00.001Z,54.6387
2023-05-02T04:56:01.351Z,54.6504
2023-05-02T04:57:02.792Z,54.5967
2023-05-02T04:58:04.173Z,54.5478
2023-05-02T04:59:05.617Z,54.6224
2023-05-02T05:00:07.042Z,54.5239
2023-05-02T05:01:08.557Z,54.5294
2023-05-02T05:02:09.991Z,54.6005
2023-05-02T05:03:11.383Z,54.6607
2023-05-02T05:04:12.810Z,54.7590
2023-05-02T05:05:14.215Z,54.3996
2023-05-02T05:06:15.676Z,53.3974
2023-05-02T05:07:17.003Z,52.2801
2023-05-02T05:08:18.366Z,51.2017
2023-05-02T05:09:19.881Z,50.5013
2023-05-02T05:10:21.203Z,50.2579
2023-05-02T05:11:23.375Z,50.3247
2023-05-02T05:12:24.095Z,50.4301
2023-05-02T05:13:25.479Z,50.9127
2023-05-02T05:14:26.902Z,51.1787
2023-05-02T05:15:28.322Z,51.2576
2023-05-02T05:16:29.841Z,51.2944
2023-05-02T05:17:31.240Z,51.3080
2023-05-02T05:18:32.589Z,51.3495
2023-05-02T05:19:34.010Z,51.3515
2023-05-02T05:20:35.480Z,51.4447
2023-05-02T05:21:36.892Z,51.5740
2023-05-02T05:22:38.284Z,51.7337
2023-05-02T05:23:39.630Z,51.9473
2023-05-02T05:24:41.080Z,52.1834
2023-05-02T05:25:44.249Z,52.3581
2023-05-02T05:26:43.949Z,52.5362
2023-05-02T05:27:45.355Z,52.6607
2023-05-02T05:28:46.759Z,52.8357
2023-05-02T05:29:48.072Z,52.9931
2023-05-02T05:30:49.621Z,53.1324
2023-05-02T05:31:51.074Z,53.3031
2023-05-02T05:32:52.437Z,53.4038
2023-05-02T05:33:53.883Z,53.4909
2023-05-02T05:34:55.281Z,53.5738
2023-05-02T05:35:56.712Z,53.6159
2023-05-02T05:36:58.104Z,53.7014
2023-05-02T05:37:59.564Z,53.7883
2023-05-02T05:39:00.921Z,53.7315
2023-05-02T05:40:02.899Z,53.7440
2023-05-02T05:41:03.759Z,53.7379
2023-05-02T05:42:05.264Z,53.7851
2023-05-02T05:43:06.688Z,53.8094
2023-05-02T05:44:08.077Z,53.7609
2023-05-02T05:45:09.445Z,53.7625
2023-05-02T05:46:10.881Z,53.7278
2023-05-02T05:47:12.490Z,53.8759
2023-05-02T05:48:13.846Z,53.9294
2023-05-02T05:49:15.144Z,53.9896
2023-05-02T05:50:16.623Z,53.9474
2023-05-02T05:51:17.989Z,53.9992
2023-05-02T05:52:19.525Z,54.0268
2023-05-02T05:53:20.896Z,54.0543
2023-05-02T05:54:22.298Z,54.0313
2023-05-02T05:55:23.656Z,54.0505
2023-05-02T05:56:25.100Z,54.0633
2023-05-02T05:57:26.529Z,54.0627
2023-05-02T05:58:27.979Z,54.0896
2023-05-02T05:59:29.328Z,54.1215
2023-05-02T06:00:30.777Z,54.1353
2023-05-02T06:01:32.156Z,54.1772
2023-05-02T06:02:33.734Z,54.2216
2023-05-02T06:03:35.222Z,54.2382
2023-05-02T06:04:36.527Z,54.2563
2023-05-02T06:05:37.851Z,54.2673
2023-05-02T06:06:39.361Z,54.2604
2023-05-02T06:07:40.725Z,54.2815
2023-05-02T06:08:42.160Z,54.3020
2023-05-02T06:09:43.597Z,54.3378
2023-05-02T06:10:44.986Z,54.3147
2023-05-02T06:11:46.303Z,54.3005
2023-05-02T06:12:49.255Z,54.3036
2023-05-02T06:13:49.272Z,54.3153
2023-05-02T06:14:50.705Z,54.3479
2023-05-02T06:15:52.061Z,54.3948
2023-05-02T06:16:53.468Z,54.3671
2023-05-02T06:17:55.009Z,54.3539
2023-05-02T06:18:56.364Z,54.3564
2023-05-02T06:19:58.081Z,54.4201
2023-05-02T06:20:59.118Z,54.4166
2023-05-02T06:22:00.602Z,54.4222
2023-05-02T06:23:02.059Z,54.4328
2023-05-02T06:24:03.504Z,54.4388
2023-05-02T06:25:04.900Z,54.4533
2023-05-02T06:26:06.307Z,54.4647
2023-05-02T06:27:07.723Z,54.4553
2023-05-02T06:28:09.135Z,54.4560
2023-05-02T06:29:10.601Z,54.4713
2023-05-02T06:30:11.921Z,54.4928
2023-05-02T06:31:13.477Z,54.5074
2023-05-02T06:32:14.769Z,54.5228
2023-05-02T06:33:16.293Z,54.5398
2023-05-02T06:34:17.689Z,54.5789
2023-05-02T06:35:19.094Z,54.5915
2023-05-02T06:36:20.472Z,54.5948
2023-05-02T06:37:21.864Z,54.6238
2023-05-02T06:38:23.368Z,54.6184
2023-05-02T06:39:24.766Z,54.5970
2023-05-02T06:40:26.205Z,54.6621
2023-05-02T06:41:27.612Z,54.6090
2023-05-02T06:42:29.045Z,54.6285
2023-05-02T06:43:30.480Z,54.6654
2023-05-02T06:44:31.910Z,54.7002
2023-05-02T06:45:33.265Z,54.6646
2023-05-02T06:46:34.769Z,54.5475
2023-05-02T06:47:36.163Z,54.4269
2023-05-02T06:48:37.593Z,54.4004
2023-05-02T06:49:39.025Z,54.4267
2023-05-02T06:50:40.448Z,54.4043
2023-05-02T06:51:41.817Z,54.4991
2023-05-02T06:52:43.252Z,54.4231
2023-05-02T06:53:44.686Z,54.3864
2023-05-02T06:54:46.212Z,54.4740
2023-05-02T06:55:47.509Z,54.4212
2023-05-02T06:56:48.874Z,54.3887
2023-05-02T06:57:50.372Z,54.3391
2023-05-02T06:58:51.848Z,54.4391
2023-05-02T06:59:53.555Z,54.4391
2023-05-02T07:00:54.742Z,54.4719
2023-05-02T07:01:56.038Z,54.3563
2023-05-02T07:02:57.574Z,54.2381
2023-05-02T07:03:58.927Z,54.2115
2023-05-02T07:05:00.334Z,54.1365
2023-05-02T07:06:01.715Z,54.0730
2023-05-02T07:07:03.144Z,54.2209
2023-05-02T07:08:04.530Z,54.2841
2023-05-02T07:09:06.026Z,54.2000
2023-05-02T07:10:07.398Z,54.0970
2023-05-02T07:11:08.872Z,54.0949
2023-05-02T07:12:10.213Z,54.0335
2023-05-02T07:13:11.688Z,54.0686
2023-05-02T07:14:13.026Z,54.1176
2023-05-02T07:15:14.550Z,54.1804
2023-05-02T07:16:15.864Z,54.1885
2023-05-02T07:17:17.359Z,54.2662
2023-05-02T07:18:18.830Z,54.3685
2023-05-02T07:19:20.250Z,54.2341
2023-05-02T07:20:21.698Z,54.4337
2023-05-02T07:21:23.052Z,54.4660
2023-05-02T07:22:24.470Z,54.3187
2023-05-02T07:23:25.845Z,54.2935
2023-05-02T07:24:27.307Z,54.2250
2023-05-02T07:25:28.735Z,54.2898
2023-05-02T07:26:30.173Z,54.2619
2023-05-02T07:27:31.560Z,54.2166
2023-05-02T07:28:33.001Z,54.2219
2023-05-02T07:29:34.412Z,54.2723
2023-05-02T07:30:35.857Z,54.4193
2023-05-02T07:31:37.237Z,54.3643
2023-05-02T07:32:38.681Z,54.2979
2023-05-02T07:33:40.047Z,54.3275
2023-05-02T07:34:41.406Z,54.3908
2023-05-02T07:35:42.980Z,54.3443
2023-05-02T07:36:44.364Z,54.4645
2023-05-02T07:37:45.713Z,54.4850
2023-05-02T07:38:47.199Z,54.7152
2023-05-02T07:39:48.553Z,54.8193
2023-05-02T07:40:50.053Z,54.7724
2023-05-02T07:41:51.456Z,54.6829
2023-05-02T07:42:52.849Z,54.5560
2023-05-02T07:43:54.234Z,54.6461
2023-05-02T07:44:55.689Z,54.7755
2023-05-02T07:45:57.172Z,54.8208
2023-05-02T07:46:58.584Z,54.8791
2023-05-02T07:47:59.957Z,54.8881
2023-05-02T07:49:01.379Z,54.8734
2023-05-02T07:50:03.006Z,54.8785
2023-05-02T07:51:04.289Z,54.8516
2023-05-02T07:52:05.693Z,54.7832
2023-05-02T07:53:07.077Z,54.8225
2023-05-02T07:54:08.480Z,54.7992
2023-05-02T07:55:09.944Z,54.7450
2023-05-02T07:56:11.388Z,54.8153
2023-05-02T07:57:12.807Z,54.8288
2023-05-02T07:58:14.193Z,54.8695
2023-05-02T07:59:15.610Z,54.8508
2023-05-02T08:00:17.017Z,54.7685
2023-05-02T08:01:18.543Z,54.7640
2023-05-02T08:02:20.034Z,54.7711
2023-05-02T08:03:21.451Z,54.7488
2023-05-02T08:04:22.896Z,54.7448
2023-05-02T08:05:24.165Z,54.7508
2023-05-02T08:06:25.689Z,54.8075
2023-05-02T08:07:27.046Z,54.7676
2023-05-02T08:08:28.373Z,54.7398
2023-05-02T08:09:29.845Z,54.7229
2023-05-02T08:10:31.257Z,54.7323
2023-05-02T08:11:32.677Z,54.7368
2023-05-02T08:12:34.180Z,54.7754
2023-05-02T08:13:35.640Z,54.8190
2023-05-02T08:14:36.912Z,54.7688
2023-05-02T08:15:38.585Z,54.7752
2023-05-02T08:16:40.040Z,54.7775
2023-05-02T08:17:41.355Z,54.7565
2023-05-02T08:18:42.674Z,54.7735
2023-05-02T08:19:44.065Z,54.7423
2023-05-02T08:20:45.514Z,54.7600
2023-05-02T08:21:46.960Z,54.7362
2023-05-02T08:22:48.397Z,54.7394
2023-05-02T08:23:49.799Z,54.7029
2023-05-02T08:24:51.175Z,54.7496
2023-05-02T08:25:52.616Z,54.7863
2023-05-02T08:26:54.074Z,54.7460
2023-05-02T08:27:55.493Z,54.7404
2023-05-02T08:28:56.917Z,54.7465
2023-05-02T08:30:00.658Z,54.8092
2023-05-02T08:30:59.697Z,54.6109
2023-05-02T08:32:01.280Z,54.4950
2023-05-02T08:33:02.618Z,54.5463
2023-05-02T08:34:04.009Z,54.7368
2023-05-02T08:35:05.424Z,54.8354
2023-05-02T08:36:06.852Z,54.8131
2023-05-02T08:37:08.299Z,54.7644
2023-05-02T08:38:09.732Z,54.7522
2023-05-02T08:39:11.093Z,54.7626
2023-05-02T08:40:12.550Z,54.7783
2023-05-02T08:41:13.958Z,54.7842
2023-05-02T08:42:15.359Z,54.7692
2023-05-02T08:43:16.797Z,54.7866
2023-05-02T08:44:18.207Z,54.7492
2023-05-02T08:45:19.555Z,54.7706
2023-05-02T08:46:21.011Z,54.7935
2023-05-02T08:47:22.617Z,54.8090
2023-05-02T08:48:23.953Z,54.7985
2023-05-02T08:49:25.323Z,54.7998
2023-05-02T08:50:26.772Z,54.6688
2023-05-02T08:51:28.088Z,54.6164
2023-05-02T08:52:29.506Z,54.5219
2023-05-02T08:53:31.027Z,54.7092
2023-05-02T08:54:32.422Z,54.5346
2023-05-02T08:55:33.748Z,54.3442
2023-05-02T08:56:35.205Z,54.4152
2023-05-02T08:57:36.668Z,54.4510
2023-05-02T08:58:38.154Z,54.4709
2023-05-02T08:59:39.546Z,54.4233
2023-05-02T09:00:40.991Z,54.3800
2023-05-02T09:01:42.371Z,54.3664
2023-05-02T09:02:43.865Z,54.3990
2023-05-02T09:03:45.205Z,54.3540
2023-05-02T09:04:46.769Z,54.3542
2023-05-02T09:05:47.999Z,54.3398
2023-05-02T09:06:49.499Z,54.3488
2023-05-02T09:07:50.832Z,54.3265
2023-05-02T09:08:52.276Z,54.2862
2023-05-02T09:09:53.729Z,54.2861
2023-05-02T09:10:55.213Z,54.2512
2023-05-02T09:11:56.475Z,54.2417
2023-05-02T09:12:57.981Z,54.2511
2023-05-02T09:13:59.388Z,54.2462
2023-05-02T09:15:01.033Z,54.2267
2023-05-02T09:16:02.208Z,54.3192
2023-05-02T09:17:03.844Z,54.2726
2023-05-02T09:18:05.151Z,54.2432
2023-05-02T09:19:06.497Z,54.2361
2023-05-02T09:20:07.913Z,54.2272
2023-05-02T09:21:09.379Z,54.2363
2023-05-02T09:22:10.791Z,54.2226
2023-05-02T09:23:12.249Z,54.2439
2023-05-02T09:24:13.677Z,54.2448
2023-05-02T09:25:15.098Z,54.2235
2023-05-02T09:26:16.464Z,54.2368
2023-05-02T09:27:17.900Z,54.2547
2023-05-02T09:28:19.270Z,54.2594
2023-05-02T09:29:20.714Z,54.3018
2023-05-02T09:30:22.235Z,54.3094
2023-05-02T09:32:24.987Z,54.3131
2023-05-02T09:33:26.467Z,54.3785
2023-05-02T09:34:27.825Z,54.3444
2023-05-02T09:35:29.326Z,54.3223
2023-05-02T09:36:30.727Z,54.3677
2023-05-02T09:37:32.182Z,54.3382
2023-05-02T09:38:33.529Z,54.2961
2023-05-02T09:39:34.973Z,54.2509
2023-05-02T09:40:36.399Z,54.2692
2023-05-02T09:41:37.858Z,54.2995
2023-05-02T09:42:39.230Z,54.3040
2023-05-02T09:43:40.683Z,54.3334
2023-05-02T09:44:42.061Z,54.3378
2023-05-02T09:45:43.592Z,54.3402
2023-05-02T09:46:45.034Z,54.3301
2023-05-02T09:47:46.361Z,54.3071
2023-05-02T09:48:47.776Z,54.2953
2023-05-02T09:49:49.241Z,54.2530
2023-05-02T09:50:50.691Z,54.2464
2023-05-02T09:51:52.153Z,54.2686
2023-05-02T09:52:53.499Z,54.2580
2023-05-02T09:53:54.984Z,54.2883
2023-05-02T09:54:56.363Z,54.2952
2023-05-02T09:55:57.840Z,54.2605
2023-05-02T09:56:59.225Z,54.2781
2023-05-02T09:58:00.594Z,54.2605
2023-05-02T09:59:02.050Z,54.2378
2023-05-02T10:00:03.756Z,54.2442
2023-05-02T10:01:05.002Z,54.2476
2023-05-02T10:02:06.323Z,54.2713
2023-05-02T10:03:07.823Z,54.2976
2023-05-02T10:04:09.658Z,54.3104
2023-05-02T10:05:10.615Z,54.3461
2023-05-02T10:06:12.158Z,54.2932
2023-05-02T10:07:13.568Z,54.2928
2023-05-02T10:08:14.902Z,54.2991
2023-05-02T10:09:19.783Z,54.2640
2023-05-02T10:10:17.707Z,54.2498
2023-05-02T10:11:19.242Z,54.2355
2023-05-02T10:12:20.570Z,54.2787
2023-05-02T10:13:21.988Z,54.2597
2023-05-02T10:14:23.402Z,54.2033
2023-05-02T10:15:24.820Z,54.1729
2023-05-02T10:16:26.282Z,54.2100
2023-05-02T10:17:27.730Z,54.2079
2023-05-02T10:18:29.097Z,54.1742
2023-05-02T10:19:30.492Z,54.2120
2023-05-02T10:20:31.970Z,54.1918
2023-05-02T10:21:33.429Z,54.1679
2023-05-02T10:22:34.835Z,54.1739
2023-05-02T10:23:36.142Z,54.1615
2023-05-02T10:24:37.645Z,54.2284
2023-05-02T10:25:39.050Z,54.1855
2023-05-02T10:26:40.474Z,54.1543
2023-05-02T10:27:41.876Z,54.2376
2023-05-02T10:28:43.407Z,54.1502
2023-05-02T10:29:44.701Z,54.0868
2023-05-02T10:30:46.134Z,54.1511
2023-05-02T10:31:47.603Z,54.1435
2023-05-02T10:32:49.053Z,54.1464
2023-05-02T10:33:50.424Z,54.1802
2023-05-02T10:34:51.831Z,54.1110
2023-05-02T10:35:53.240Z,54.1330
2023-05-02T10:36:54.675Z,54.1261
2023-05-02T10:37:56.105Z,54.1073
2023-05-02T10:38:57.589Z,54.1030
2023-05-02T10:39:58.984Z,54.1009
2023-05-02T10:41:00.337Z,54.0655
2023-05-02T10:42:01.759Z,54.0192
2023-05-02T10:43:03.187Z,54.0209
2023-05-02T10:44:04.676Z,54.0266
2023-05-02T10:45:06.025Z,54.0345
2023-05-02T10:46:07.478Z,54.0448
2023-05-02T10:47:08.834Z,54.0624
2023-05-02T10:48:10.402Z,54.0571
2023-05-02T10:49:11.713Z,54.0044
2023-05-02T10:50:13.167Z,53.9939
2023-05-02T10:51:14.554Z,54.0101
2023-05-02T10:52:15.888Z,54.0290
2023-05-02T10:53:17.395Z,54.0723
2023-05-02T10:54:18.858Z,54.0208
2023-05-02T10:55:20.214Z,53.9949
2023-05-02T10:56:21.679Z,54.0059
2023-05-02T10:57:23.029Z,54.0095
2023-05-02T10:58:24.559Z,53.9869
2023-05-02T10:59:25.924Z,53.9579
2023-05-02T11:00:27.398Z,53.8978
2023-05-02T11:01:28.858Z,53.9014
2023-05-02T11:02:30.227Z,53.9349
2023-05-02T11:03:31.620Z,53.9214
2023-05-02T11:04:33.056Z,53.8967
2023-05-02T11:05:34.427Z,53.8950
2023-05-02T11:06:35.908Z,53.9043
2023-05-02T11:07:37.232Z,53.9154
2023-05-02T11:08:38.617Z,54.0424
2023-05-02T11:09:40.128Z,54.1276
2023-05-02T11:10:41.575Z,54.0352
2023-05-02T11:11:43.299Z,53.9437
2023-05-02T11:12:44.309Z,53.9728
2023-05-02T11:13:45.778Z,54.0788
2023-05-02T11:14:47.314Z,54.0588
2023-05-02T11:15:48.678Z,54.2144
2023-05-02T11:16:50.085Z,54.2613
2023-05-02T11:17:51.448Z,54.2669
2023-05-02T11:18:52.875Z,54.2213
2023-05-02T11:19:54.318Z,53.9763
2023-05-02T11:20:55.765Z,53.9043
2023-05-02T11:21:57.119Z,53.8883
2023-05-02T11:22:58.604Z,53.8506
2023-05-02T11:23:59.933Z,53.8800
2023-05-02T11:25:01.748Z,53.9854
2023-05-02T11:26:02.859Z,54.1060
2023-05-02T11:27:04.245Z,54.0105
2023-05-02T11:28:05.681Z,54.0739
2023-05-02T11:29:07.090Z,54.1291
2023-05-02T11:30:08.491Z,54.0449
2023-05-02T11:31:09.974Z,53.9761
2023-05-02T11:32:11.348Z,54.0187
2023-05-02T11:33:12.808Z,54.0422
2023-05-02T11:34:14.141Z,54.0790
2023-05-02T11:35:15.612Z,54.0518
2023-05-02T11:36:17.152Z,54.1200
2023-05-02T11:37:18.449Z,54.1241
2023-05-02T11:38:19.878Z,54.1005
2023-05-02T11:39:21.302Z,53.9942
2023-05-02T11:40:22.722Z,53.9763
2023-05-02T11:41:24.195Z,53.9572
2023-05-02T11:42:25.554Z,54.0291
2023-05-02T11:43:28.165Z,54.0633
2023-05-02T11:44:28.360Z,54.0348
2023-05-02T11:45:29.884Z,54.0303
2023-05-02T11:46:31.340Z,54.2097
2023-05-02T11:47:32.762Z,54.2419
2023-05-02T11:48:34.161Z,54.2509
2023-05-02T11:49:35.527Z,54.2593
2023-05-02T11:50:37.728Z,54.2214
2023-05-02T11:51:38.426Z,54.2137
2023-05-02T11:52:39.746Z,54.0776
2023-05-02T11:53:41.250Z,54.0225
2023-05-02T11:54:42.613Z,54.0689
2023-05-02T11:55:44.022Z,54.0852
2023-05-02T11:56:45.510Z,54.1538
2023-05-02T11:57:46.977Z,54.1550
2023-05-02T11:58:48.288Z,54.1887
2023-05-02T11:59:49.758Z,54.1809
2023-05-02T12:00:51.147Z,54.1987
2023-05-02T12:01:52.625Z,54.2354
2023-05-02T12:02:54.064Z,54.1722
2023-05-02T12:03:55.531Z,54.1152
2023-05-02T12:04:56.811Z,54.0633
2023-05-02T12:05:58.285Z,54.1139
2023-05-02T12:06:59.708Z,54.0653
2023-05-02T12:08:01.180Z,54.0546
2023-05-02T12:09:02.493Z,54.1497
2023-05-02T12:10:03.974Z,54.0906
2023-05-02T12:11:05.344Z,54.2222
2023-05-02T12:12:06.852Z,54.3158
2023-05-02T12:13:10.103Z,54.2290
2023-05-02T12:14:09.633Z,54.2850
2023-05-02T12:15:11.134Z,54.2144
2023-05-02T12:16:12.618Z,54.2422
2023-05-02T12:17:13.931Z,54.2962
2023-05-02T12:18:15.395Z,54.3281
2023-05-02T12:19:16.823Z,54.2959
2023-05-02T12:20:18.295Z,54.2100
2023-05-02T12:21:19.636Z,54.1351
2023-05-02T12:22:21.121Z,54.2207
2023-05-02T12:23:22.505Z,54.1741